Time;durP1;ratioP1;P1;durP2;ratioP2;P2;SDS_P1;SDS_P2;PMS_P1;PMS_P2;Temp;Humidity;BMP_temperature;BMP_pressure;BME280_temperature;BME280_humidity;BME280_pressure;Samples;Min_cycle;Max_cycle;Signal;HPM_P1;HPM_P2
2021/01/25 00:00:30;;;;;;;11.30;9.52;;;1.80;85.90;;;;;;5060724;28;20212;-80
2021/01/25 00:02:56;;;;;;;8.70;7.78;;;1.80;86.30;;;;;;5064858;28;20234;-80
2021/01/25 00:05:22;;;;;;;10.68;7.68;;;1.90;85.80;;;;;;5058400;28;20199;-80
2021/01/25 00:07:49;;;;;;;8.95;6.95;;;1.90;85.30;;;;;;5071894;28;20239;-80
2021/01/25 00:10:15;;;;;;;9.80;7.70;;;1.90;85.20;;;;;;5058401;28;20272;-80
2021/01/25 00:12:42;;;;;;;12.27;7.72;;;1.90;85.20;;;;;;5057862;28;20656;-80
2021/01/25 00:15:10;;;;;;;7.43;6.72;;;1.80;85.10;;;;;;5065465;28;20243;-80
2021/01/25 00:17:36;;;;;;;10.23;7.43;;;1.80;85.00;;;;;;5055717;28;20237;-80
2021/01/25 00:20:04;;;;;;;12.23;7.20;;;1.80;85.20;;;;;;5065381;28;20216;-80
2021/01/25 00:22:30;;;;;;;8.65;6.75;;;1.80;84.80;;;;;;5057435;28;20215;-80
2021/01/25 00:24:56;;;;;;;7.65;6.35;;;1.80;84.10;;;;;;5072602;28;20233;-80
2021/01/25 00:27:23;;;;;;;7.93;7.20;;;1.70;83.80;;;;;;5061586;28;20235;-80
2021/01/25 00:29:50;;;;;;;8.35;7.35;;;1.50;83.90;;;;;;5056257;28;20542;-80
2021/01/25 00:32:16;;;;;;;8.63;7.78;;;1.30;84.30;;;;;;5072189;28;20225;-80
2021/01/25 00:34:44;;;;;;;7.20;5.85;;;1.30;84.50;;;;;;5066976;28;20281;-80
2021/01/25 00:37:10;;;;;;;8.40;6.65;;;1.30;84.80;;;;;;5066131;28;20207;-80
2021/01/25 00:39:37;;;;;;;7.88;7.15;;;1.40;84.60;;;;;;5068291;28;20207;-80
2021/01/25 00:42:04;;;;;;;9.20;6.43;;;1.30;85.70;;;;;;5070020;28;20699;-80
2021/01/25 00:44:30;;;;;;;7.22;6.63;;;1.30;85.80;;;;;;5055640;28;20318;-80
2021/01/25 00:46:57;;;;;;;8.52;6.50;;;1.10;85.70;;;;;;5055776;28;20302;-80
2021/01/25 00:49:23;;;;;;;6.50;6.00;;;1.20;86.60;;;;;;5060527;28;20246;-80
2021/01/25 00:51:50;;;;;;;8.98;6.60;;;1.30;86.30;;;;;;5069693;28;20226;-80
2021/01/25 00:54:16;;;;;;;7.20;6.50;;;1.30;86.00;;;;;;5071467;28;20241;-80
2021/01/25 00:56:43;;;;;;;8.15;7.07;;;1.20;85.80;;;;;;5068947;28;20215;-80
2021/01/25 00:59:09;;;;;;;8.15;6.30;;;1.20;85.90;;;;;;5070402;28;20208;-80
2021/01/25 01:01:36;;;;;;;7.70;6.15;;;1.30;86.10;;;;;;5066089;28;20195;-80
2021/01/25 01:04:04;;;;;;;6.88;6.22;;;1.50;85.30;;;;;;5069273;28;20229;-80
2021/01/25 01:06:30;;;;;;;6.55;5.90;;;1.50;85.40;;;;;;5051748;28;20227;-80
2021/01/25 01:08:57;;;;;;;6.88;6.20;;;1.30;85.20;;;;;;5050862;28;20254;-80
2021/01/25 01:11:23;;;;;;;8.02;6.40;;;0.90;86.20;;;;;;5053758;28;20208;-80
2021/01/25 01:13:49;;;;;;;8.50;6.55;;;1.10;87.80;;;;;;5065839;28;20199;-80
2021/01/25 01:16:16;;;;;;;7.50;6.70;;;1.30;87.80;;;;;;5059178;28;20207;-80
2021/01/25 01:18:42;;;;;;;6.47;5.68;;;1.50;86.40;;;;;;5070962;28;20751;-80
2021/01/25 01:21:09;;;;;;;7.40;6.20;;;1.50;85.50;;;;;;5069932;28;20257;-80
2021/01/25 01:23:36;;;;;;;6.57;5.95;;;1.60;85.20;;;;;;5055309;28;20254;-80
2021/01/25 01:26:03;;;;;;;9.95;5.88;;;1.40;85.10;;;;;;5052444;28;20227;-80
2021/01/25 01:28:29;;;;;;;7.03;6.28;;;1.10;85.80;;;;;;5050471;28;20200;-80
2021/01/25 01:30:56;;;;;;;8.82;6.50;;;1.20;87.40;;;;;;5065472;28;20210;-80
2021/01/25 01:33:22;;;;;;;7.90;6.43;;;1.40;86.10;;;;;;5060206;28;20200;-80
2021/01/25 01:35:48;;;;;;;6.65;6.05;;;1.50;85.40;;;;;;5059929;28;20238;-80
2021/01/25 01:38:16;;;;;;;6.53;5.93;;;1.60;85.30;;;;;;5050505;28;20243;-80
2021/01/25 01:40:42;;;;;;;10.20;6.10;;;1.50;85.10;;;;;;5062071;28;20199;-80
2021/01/25 01:43:09;;;;;;;6.25;5.75;;;1.60;85.50;;;;;;5059618;28;20676;-80
2021/01/25 01:45:35;;;;;;;7.85;5.97;;;1.30;85.80;;;;;;5059706;28;20227;-80
2021/01/25 01:48:02;;;;;;;6.30;5.70;;;1.40;86.50;;;;;;5063493;28;20237;-80
2021/01/25 01:50:28;;;;;;;6.70;6.07;;;1.50;86.10;;;;;;5061696;28;20257;-80
2021/01/25 01:52:55;;;;;;;8.23;6.68;;;1.40;85.40;;;;;;5066107;28;20199;-80
2021/01/25 01:55:23;;;;;;;10.63;6.20;;;1.20;86.40;;;;;;5067269;28;20234;-80
2021/01/25 01:57:51;;;;;;;7.30;6.55;;;1.30;87.40;;;;;;5069147;28;20679;-80
2021/01/25 02:00:19;;;;;;;7.78;6.47;;;1.50;86.90;;;;;;5068835;28;20199;-80
2021/01/25 02:02:45;;;;;;;6.45;5.82;;;1.40;86.80;;;;;;5068624;28;20257;-80
2021/01/25 02:05:15;;;;;;;6.10;5.50;;;1.50;87.50;;;;;;5069209;28;20572;-80
2021/01/25 02:07:48;;;;;;;7.53;6.45;;;1.50;87.90;;;;;;5070015;28;20253;-80
2021/01/25 02:10:19;;;;;;;6.75;6.15;;;1.40;87.90;;;;;;5068280;28;20199;-80
2021/01/25 02:12:49;;;;;;;7.30;6.57;;;1.60;87.70;;;;;;5069041;28;20210;-80
2021/01/25 02:15:19;;;;;;;7.82;7.03;;;1.70;87.70;;;;;;5070171;28;20211;-80
2021/01/25 02:17:48;;;;;;;7.55;6.85;;;1.70;86.80;;;;;;5065885;28;20226;-80
2021/01/25 02:20:24;;;;;;;6.80;6.10;;;1.80;87.20;;;;;;5064833;28;20231;-80
2021/01/25 02:23:07;;;;;;;7.75;6.63;;;1.90;86.60;;;;;;5060240;28;20229;-80
2021/01/25 02:25:47;;;;;;;6.80;6.20;;;1.90;86.30;;;;;;5063312;28;20614;-80
2021/01/25 02:28:16;;;;;;;6.70;5.85;;;1.90;86.10;;;;;;5068047;28;20256;-80
2021/01/25 02:30:45;;;;;;;8.60;6.00;;;1.90;86.50;;;;;;5057318;28;20233;-80
2021/01/25 02:33:13;;;;;;;8.38;6.45;;;1.90;86.70;;;;;;5059254;28;20199;-80
2021/01/25 02:35:42;;;;;;;7.03;6.32;;;2.00;87.60;;;;;;5066204;28;20214;-80
2021/01/25 02:38:12;;;;;;;7.75;6.40;;;1.90;86.20;;;;;;5049615;28;20208;-80
2021/01/25 02:40:40;;;;;;;6.43;5.82;;;2.00;86.60;;;;;;5054896;28;20270;-80
2021/01/25 02:43:09;;;;;;;9.45;6.60;;;1.80;85.80;;;;;;5047552;28;20228;-80
2021/01/25 02:45:38;;;;;;;7.90;6.75;;;1.90;86.60;;;;;;5055171;28;20299;-80
2021/01/25 02:48:07;;;;;;;7.28;6.53;;;1.90;86.60;;;;;;5055792;28;20621;-80
2021/01/25 02:50:35;;;;;;;8.57;6.65;;;1.90;86.90;;;;;;5056073;28;20234;-80
2021/01/25 02:53:03;;;;;;;8.35;6.53;;;1.90;87.60;;;;;;5064623;28;20183;-80
2021/01/25 02:55:32;;;;;;;7.88;7.10;;;2.00;87.90;;;;;;5063690;28;20196;-81
2021/01/25 02:58:01;;;;;;;11.63;7.30;;;1.90;87.70;;;;;;5068871;28;20202;-81
2021/01/25 03:00:30;;;;;;;8.50;6.80;;;1.90;87.80;;;;;;5069387;28;20650;-80
2021/01/25 03:03:00;;;;;;;7.20;6.00;;;1.90;87.90;;;;;;5070096;28;20581;-80
2021/01/25 03:05:29;;;;;;;9.85;6.57;;;2.00;88.20;;;;;;5065105;28;20203;-80
2021/01/25 03:07:57;;;;;;;7.63;6.85;;;2.00;88.20;;;;;;5057396;28;20195;-80
2021/01/25 03:10:23;;;;;;;8.00;7.20;;;2.10;88.30;;;;;;5062331;28;20211;-81
2021/01/25 03:12:49;;;;;;;7.32;6.63;;;2.10;89.10;;;;;;5050012;28;20620;-80
2021/01/25 03:15:18;;;;;;;8.38;6.25;;;2.10;89.70;;;;;;5061336;28;20783;-80
2021/01/25 03:17:45;;;;;;;9.70;7.05;;;1.90;90.30;;;;;;5065296;28;20273;-80
2021/01/25 03:20:12;;;;;;;8.75;7.57;;;1.90;90.70;;;;;;5061062;28;20207;-80
2021/01/25 03:22:39;;;;;;;12.82;8.05;;;1.80;91.00;;;;;;5062783;28;20979;-80
2021/01/25 03:25:06;;;;;;;7.40;6.70;;;1.90;91.60;;;;;;5069161;28;20572;-80
2021/01/25 03:27:33;;;;;;;9.13;8.00;;;1.90;91.50;;;;;;5049987;28;20211;-81
2021/01/25 03:29:59;;;;;;;8.05;7.32;;;1.80;91.70;;;;;;5054598;28;20195;-80
2021/01/25 03:32:25;;;;;;;7.88;6.60;;;1.90;92.20;;;;;;5071585;28;20206;-80
2021/01/25 03:34:52;;;;;;;8.63;6.80;;;1.80;92.30;;;;;;5068435;28;20200;-80
2021/01/25 03:37:19;;;;;;;9.52;6.82;;;1.80;92.40;;;;;;5071254;28;20549;-80
2021/01/25 03:39:45;;;;;;;8.07;7.00;;;1.90;92.90;;;;;;5056965;28;20203;-80
2021/01/25 03:42:12;;;;;;;8.98;7.40;;;1.90;92.80;;;;;;5071290;28;20200;-80
2021/01/25 03:44:38;;;;;;;7.32;6.72;;;1.90;93.20;;;;;;5071127;28;20224;-80
2021/01/25 03:47:05;;;;;;;7.05;6.38;;;1.90;93.10;;;;;;5053117;28;20700;-79
2021/01/25 03:49:31;;;;;;;6.70;6.05;;;1.80;93.20;;;;;;5057493;28;20206;-80
2021/01/25 03:51:58;;;;;;;7.25;6.55;;;1.70;93.70;;;;;;5055006;28;20196;-80
2021/01/25 03:54:25;;;;;;;7.30;6.60;;;1.80;94.00;;;;;;5053499;28;20207;-80
2021/01/25 03:56:51;;;;;;;8.82;8.00;;;1.80;93.80;;;;;;5058399;28;20204;-80
2021/01/25 03:59:17;;;;;;;7.28;6.57;;;1.80;93.80;;;;;;5073193;28;20203;-80
2021/01/25 04:01:44;;;;;;;7.90;6.85;;;1.80;94.00;;;;;;5056499;28;20674;-80
2021/01/25 04:04:10;;;;;;;6.68;6.10;;;1.80;93.90;;;;;;5053779;28;20595;-80
2021/01/25 04:06:37;;;;;;;8.57;7.10;;;1.70;94.00;;;;;;5070786;28;20558;-80
2021/01/25 04:09:04;;;;;;;7.03;6.35;;;1.80;94.20;;;;;;5072255;28;20218;-80
2021/01/25 04:11:31;;;;;;;6.10;5.60;;;1.80;94.30;;;;;;5058113;28;20211;-80
2021/01/25 04:13:58;;;;;;;7.03;6.32;;;1.80;94.20;;;;;;5054143;28;20597;-80
2021/01/25 04:16:25;;;;;;;5.45;4.95;;;1.70;94.40;;;;;;5070190;28;20324;-80
2021/01/25 04:18:54;;;;;;;7.70;5.78;;;1.70;94.80;;;;;;5057257;28;20232;-80
2021/01/25 04:21:20;;;;;;;6.35;5.80;;;1.70;94.60;;;;;;5064439;28;20214;-80
2021/01/25 04:23:47;;;;;;;6.60;5.72;;;1.70;94.60;;;;;;5060790;28;20318;-79
2021/01/25 04:26:15;;;;;;;6.90;6.30;;;1.80;94.60;;;;;;5057690;28;20625;-80
2021/01/25 04:28:43;;;;;;;7.80;5.82;;;1.80;94.70;;;;;;5056618;28;20540;-80
2021/01/25 04:31:09;;;;;;;6.00;5.05;;;1.90;94.60;;;;;;5065241;28;20218;-79
2021/01/25 04:33:36;;;;;;;7.32;5.80;;;1.90;94.60;;;;;;5065870;28;20216;-79
2021/01/25 04:36:03;;;;;;;5.15;4.60;;;1.90;94.60;;;;;;5056620;28;20549;-80
2021/01/25 04:38:29;;;;;;;11.07;7.55;;;1.80;94.60;;;;;;5071354;28;20234;-80
2021/01/25 04:40:56;;;;;;;11.60;7.57;;;1.90;95.10;;;;;;5066881;28;20282;-80
2021/01/25 04:43:24;;;;;;;7.80;6.97;;;1.90;95.00;;;;;;5071331;28;20223;-80
2021/01/25 04:45:53;;;;;;;6.95;6.20;;;1.90;94.70;;;;;;5060297;28;20232;-79
2021/01/25 04:48:21;;;;;;;5.78;4.80;;;1.90;94.80;;;;;;5059650;28;20302;-79
2021/01/25 04:50:49;;;;;;;10.45;4.60;;;1.90;94.70;;;;;;5056415;28;20227;-80
2021/01/25 04:53:16;;;;;;;6.50;5.60;;;1.90;94.70;;;;;;5052937;28;20199;-80
2021/01/25 04:55:43;;;;;;;8.32;7.10;;;1.90;95.00;;;;;;5061541;28;20573;-79
2021/01/25 04:58:10;;;;;;;7.57;6.70;;;1.80;95.00;;;;;;5066111;28;20669;-80
2021/01/25 05:00:36;;;;;;;7.28;6.63;;;1.80;95.00;;;;;;5064300;28;20850;-80
2021/01/25 05:03:04;;;;;;;7.32;6.60;;;1.90;95.00;;;;;;5060254;28;20199;-79
2021/01/25 05:05:30;;;;;;;9.52;6.60;;;1.90;95.00;;;;;;5073107;28;20238;-80
2021/01/25 05:07:57;;;;;;;8.20;7.45;;;1.90;95.00;;;;;;5051943;28;20246;-80
2021/01/25 05:10:23;;;;;;;8.15;6.72;;;1.80;94.90;;;;;;5060739;28;20266;-80
2021/01/25 05:12:51;;;;;;;7.68;7.00;;;1.90;95.00;;;;;;5072307;28;20292;-80
2021/01/25 05:15:26;;;;;;;8.40;6.28;;;1.80;95.00;;;;;;5062591;28;20219;-79
2021/01/25 05:17:52;;;;;;;8.95;6.47;;;1.90;95.10;;;;;;5058635;28;20218;-80
2021/01/25 05:20:24;;;;;;;6.38;5.78;;;1.80;95.50;;;;;;5069676;28;20207;-80
2021/01/25 05:22:51;;;;;;;7.18;6.47;;;2.00;95.40;;;;;;5062536;28;20196;-79
2021/01/25 05:25:28;;;;;;;5.88;5.38;;;2.00;95.50;;;;;;5055114;28;20295;-79
2021/01/25 05:27:54;;;;;;;5.50;4.95;;;2.00;95.10;;;;;;5054669;28;20279;-79
2021/01/25 05:30:22;;;;;;;5.72;5.20;;;1.90;95.10;;;;;;5067464;28;20227;-80
2021/01/25 05:32:51;;;;;;;7.40;6.65;;;1.90;95.20;;;;;;5061553;28;20203;-79
2021/01/25 05:35:18;;;;;;;7.25;6.38;;;1.90;95.20;;;;;;5062606;28;20211;-80
2021/01/25 05:37:52;;;;;;;6.65;6.05;;;1.90;95.40;;;;;;5062090;28;20204;-81
2021/01/25 05:40:21;;;;;;;6.40;5.70;;;2.00;95.10;;;;;;5060470;28;20739;-81
2021/01/25 05:42:48;;;;;;;6.63;5.88;;;2.00;95.30;;;;;;5059885;28;20242;-81
2021/01/25 05:45:15;;;;;;;6.38;5.82;;;2.00;95.60;;;;;;5060109;28;20203;-81
2021/01/25 05:47:47;;;;;;;7.32;6.63;;;1.90;95.10;;;;;;5058091;28;20296;-81
2021/01/25 05:50:33;;;;;;;7.78;6.75;;;2.10;95.50;;;;;;5055208;28;20210;-81
2021/01/25 05:53:01;;;;;;;6.53;5.93;;;2.10;95.80;;;;;;5071473;28;20234;-81
2021/01/25 05:55:29;;;;;;;9.43;5.95;;;2.00;95.70;;;;;;5065178;28;20231;-80
2021/01/25 05:57:55;;;;;;;8.88;6.75;;;2.00;95.60;;;;;;5061524;28;20200;-81
2021/01/25 06:00:23;;;;;;;10.65;6.28;;;2.00;95.80;;;;;;5060350;28;20208;-80
2021/01/25 06:02:51;;;;;;;9.77;6.88;;;1.90;95.50;;;;;;5069537;28;20735;-80
2021/01/25 06:05:26;;;;;;;7.40;6.70;;;2.00;95.50;;;;;;5059426;28;20249;-81
2021/01/25 06:07:57;;;;;;;7.20;6.60;;;2.00;95.50;;;;;;5064302;28;20211;-80
2021/01/25 06:10:28;;;;;;;9.90;6.95;;;1.90;95.40;;;;;;5071011;28;20199;-80
2021/01/25 06:13:04;;;;;;;6.40;5.85;;;1.90;95.40;;;;;;5070560;28;20203;-81
2021/01/25 06:15:31;;;;;;;6.90;6.20;;;1.80;95.40;;;;;;5053631;28;20200;-80
2021/01/25 06:17:59;;;;;;;7.47;5.93;;;1.80;95.40;;;;;;5058733;28;20202;-80
2021/01/25 06:20:28;;;;;;;7.53;6.70;;;1.80;95.60;;;;;;5052762;28;20203;-81
2021/01/25 06:22:55;;;;;;;8.10;6.35;;;1.70;95.50;;;;;;5061033;28;20202;-82
2021/01/25 06:25:23;;;;;;;7.20;6.40;;;1.70;95.60;;;;;;5058623;28;20753;-83
2021/01/25 06:27:54;;;;;;;7.85;6.60;;;1.60;95.30;;;;;;5060639;28;20195;-82
2021/01/25 06:30:25;;;;;;;7.07;6.38;;;1.60;95.20;;;;;;5060312;28;20211;-82
2021/01/25 06:32:52;;;;;;;7.93;7.13;;;1.40;95.10;;;;;;5064589;28;21369;-82
2021/01/25 06:35:19;;;;;;;8.27;7.35;;;1.30;95.20;;;;;;5059760;28;21092;-82
2021/01/25 06:37:56;;;;;;;8.43;7.53;;;1.30;95.50;;;;;;5054715;28;20220;-83
2021/01/25 06:40:25;;;;;;;6.88;6.28;;;1.30;95.40;;;;;;5068695;28;20237;-82
2021/01/25 06:42:54;;;;;;;7.70;6.97;;;1.40;95.60;;;;;;5058320;28;20207;-82
2021/01/25 06:45:23;;;;;;;9.10;7.18;;;1.50;95.70;;;;;;5059965;28;20616;-82
2021/01/25 06:47:50;;;;;;;10.18;8.75;;;1.50;95.70;;;;;;5063962;28;20233;-82
2021/01/25 06:50:19;;;;;;;9.98;7.63;;;1.50;95.70;;;;;;5068048;28;20214;-82
2021/01/25 06:52:49;;;;;;;9.35;7.45;;;1.40;95.70;;;;;;5060055;28;20208;-82
2021/01/25 06:55:16;;;;;;;10.10;7.28;;;1.40;95.90;;;;;;5050641;28;20191;-82
2021/01/25 06:57:46;;;;;;;7.80;7.03;;;1.40;96.00;;;;;;5050200;28;20291;-82
2021/01/25 07:00:24;;;;;;;7.05;5.90;;;1.40;96.00;;;;;;5056658;28;20591;-83
2021/01/25 07:02:52;;;;;;;13.35;7.45;;;1.40;96.10;;;;;;5051439;28;20222;-82
2021/01/25 07:05:22;;;;;;;8.23;7.43;;;1.50;96.30;;;;;;5052261;28;20574;-82
2021/01/25 07:07:49;;;;;;;12.82;7.18;;;1.60;96.30;;;;;;5071935;28;20690;-82
2021/01/25 07:10:16;;;;;;;10.20;8.50;;;1.70;96.20;;;;;;5065612;28;20208;-82
2021/01/25 07:12:43;;;;;;;8.43;7.32;;;1.70;96.10;;;;;;5057962;28;20213;-82
2021/01/25 07:15:12;;;;;;;11.25;8.88;;;1.80;96.20;;;;;;5059067;28;20204;-82
2021/01/25 07:17:39;;;;;;;22.45;15.77;;;1.80;96.10;;;;;;5057663;28;20246;-82
2021/01/25 07:20:07;;;;;;;11.75;8.98;;;1.90;96.10;;;;;;5074358;28;20203;-82
2021/01/25 07:22:36;;;;;;;9.45;8.55;;;1.90;95.80;;;;;;5070618;28;20592;-83
2021/01/25 07:25:05;;;;;;;9.45;7.65;;;1.80;95.70;;;;;;5072597;28;20258;-82
2021/01/25 07:27:35;;;;;;;8.93;8.05;;;1.80;95.90;;;;;;5075862;28;20206;-83
2021/01/25 07:30:03;;;;;;;15.52;13.05;;;1.90;96.00;;;;;;5070529;28;20203;-82
2021/01/25 07:32:29;;;;;;;13.38;12.05;;;1.90;96.00;;;;;;5069112;28;20206;-83
2021/01/25 07:34:57;;;;;;;10.07;8.52;;;1.90;95.90;;;;;;5066449;28;20206;-83
2021/01/25 07:37:24;;;;;;;16.42;14.20;;;1.90;96.00;;;;;;5058870;28;20246;-82
2021/01/25 07:39:50;;;;;;;13.88;10.45;;;2.00;95.80;;;;;;5071864;28;20230;-83
2021/01/25 07:42:16;;;;;;;10.73;8.93;;;2.00;95.80;;;;;;5080364;28;20221;-82
2021/01/25 07:44:44;;;;;;;9.88;8.35;;;2.10;95.80;;;;;;5078595;28;20268;-83
2021/01/25 07:47:10;;;;;;;11.95;9.20;;;2.10;95.80;;;;;;5062266;28;20258;-82
2021/01/25 07:49:37;;;;;;;11.50;10.07;;;2.00;95.70;;;;;;5070514;28;20256;-83
2021/01/25 07:52:15;;;;;;;11.05;9.23;;;2.10;95.90;;;;;;5079405;28;20750;-82
2021/01/25 07:54:42;;;;;;;11.20;7.75;;;2.10;95.70;;;;;;5078586;28;20191;-83
2021/01/25 07:57:22;;;;;;;11.90;10.18;;;2.20;95.70;;;;;;5062409;28;20215;-83
2021/01/25 07:59:49;;;;;;;12.30;9.35;;;2.10;95.60;;;;;;5062975;28;20230;-83
2021/01/25 08:02:17;;;;;;;11.45;9.65;;;2.20;95.80;;;;;;5059664;28;20212;-83
2021/01/25 08:04:45;;;;;;;11.30;8.85;;;2.20;95.80;;;;;;5067111;28;20788;-82
2021/01/25 08:07:17;;;;;;;13.35;8.20;;;2.30;95.90;;;;;;5079638;28;20210;-83
2021/01/25 08:09:45;;;;;;;11.27;7.80;;;2.30;95.80;;;;;;5073863;28;20263;-82
2021/01/25 08:12:12;;;;;;;9.52;7.50;;;2.30;95.80;;;;;;5080053;28;20221;-82
2021/01/25 08:14:43;;;;;;;8.93;8.13;;;2.30;95.80;;;;;;5074118;28;20195;-82
2021/01/25 08:17:21;;;;;;;8.60;7.82;;;2.30;95.90;;;;;;5059903;28;20322;-81
2021/01/25 08:19:55;;;;;;;8.15;7.35;;;2.30;96.10;;;;;;5060995;28;20198;-82
2021/01/25 08:22:25;;;;;;;11.88;7.60;;;2.20;95.90;;;;;;5071064;28;20263;-82
2021/01/25 08:24:56;;;;;;;9.05;7.10;;;2.20;96.30;;;;;;5068586;28;20215;-82
2021/01/25 08:27:23;;;;;;;9.73;7.68;;;2.10;96.60;;;;;;5074692;28;20200;-82
2021/01/25 08:30:00;;;;;;;8.20;7.25;;;2.10;97.00;;;;;;5074287;28;20204;-82
2021/01/25 08:32:38;;;;;;;7.50;6.28;;;2.30;97.20;;;;;;5075950;28;20207;-82
2021/01/25 08:35:07;;;;;;;6.95;6.15;;;2.40;97.10;;;;;;5060163;28;20200;-83
2021/01/25 08:37:35;;;;;;;6.95;6.05;;;2.50;96.70;;;;;;5066484;28;20665;-83
2021/01/25 08:40:13;;;;;;;8.00;6.50;;;2.60;96.60;;;;;;5074802;28;20195;-83
2021/01/25 08:42:39;;;;;;;8.77;7.90;;;2.70;96.50;;;;;;5076362;28;20219;-83
2021/01/25 08:45:10;;;;;;;8.30;6.55;;;2.80;96.40;;;;;;5062654;28;20223;-83
2021/01/25 08:47:37;;;;;;;7.45;6.68;;;2.80;96.00;;;;;;5056061;28;20242;-83
2021/01/25 08:50:17;;;;;;;8.23;5.90;;;3.00;96.10;;;;;;5072069;28;20211;-84
2021/01/25 08:52:44;;;;;;;8.98;6.80;;;3.10;95.80;;;;;;5075199;28;20284;-83
2021/01/25 08:58:42;;;;;;;8.25;7.45;;;3.10;95.50;;;;;;5052617;28;20199;-84
2021/01/25 09:01:28;;;;;;;9.30;7.20;;;3.20;95.70;;;;;;5073876;28;20229;-83
2021/01/25 09:03:58;;;;;;;8.07;7.25;;;3.30;95.50;;;;;;5070598;28;20210;-82
2021/01/25 09:06:26;;;;;;;8.70;7.88;;;3.10;95.50;;;;;;5072515;28;20238;-83
2021/01/25 09:08:52;;;;;;;9.38;7.25;;;3.10;95.60;;;;;;5065948;28;20580;-83
2021/01/25 09:11:19;;;;;;;6.55;5.95;;;3.30;95.80;;;;;;5064448;28;20207;-83
2021/01/25 09:13:46;;;;;;;12.77;7.35;;;3.40;95.70;;;;;;5060513;28;20192;-84
2021/01/25 09:16:12;;;;;;;6.93;6.22;;;3.50;95.60;;;;;;5071903;28;20199;-83
2021/01/25 09:18:40;;;;;;;6.50;5.40;;;3.60;95.40;;;;;;5069488;28;20195;-84
2021/01/25 09:21:07;;;;;;;7.28;6.35;;;3.70;95.00;;;;;;5053432;28;20677;-83
2021/01/25 09:23:33;;;;;;;8.50;6.40;;;3.90;94.90;;;;;;5062572;28;20219;-84
2021/01/25 09:26:00;;;;;;;7.07;6.38;;;3.90;94.60;;;;;;5052923;28;20196;-84
2021/01/25 09:28:27;;;;;;;7.07;6.40;;;3.90;94.50;;;;;;5052973;28;20226;-84
2021/01/25 09:30:54;;;;;;;7.60;6.88;;;3.90;94.40;;;;;;5051801;28;20204;-84
2021/01/25 09:33:21;;;;;;;9.27;7.93;;;3.90;94.60;;;;;;5051667;28;20558;-83
2021/01/25 09:35:49;;;;;;;7.38;6.70;;;3.90;94.70;;;;;;5052664;28;20231;-84
2021/01/25 09:38:15;;;;;;;6.57;5.97;;;3.90;94.50;;;;;;5066497;28;20215;-84
2021/01/25 09:40:42;;;;;;;7.20;5.38;;;3.90;94.60;;;;;;5054724;28;20200;-84
2021/01/25 09:43:08;;;;;;;6.63;5.10;;;3.70;94.80;;;;;;5065224;28;20195;-83
2021/01/25 09:45:35;;;;;;;5.20;4.70;;;3.80;94.90;;;;;;5058883;28;20224;-83
2021/01/25 09:48:04;;;;;;;5.82;4.75;;;3.90;95.10;;;;;;5050694;28;20207;-84
2021/01/25 09:50:31;;;;;;;6.80;5.00;;;4.00;94.70;;;;;;5061738;28;20199;-84
2021/01/25 09:53:00;;;;;;;5.63;5.13;;;4.10;94.60;;;;;;5065580;28;20196;-83
2021/01/25 09:55:27;;;;;;;5.28;4.70;;;4.10;94.60;;;;;;5063557;28;20203;-84
2021/01/25 09:57:55;;;;;;;5.15;4.75;;;4.20;94.50;;;;;;5071135;28;20199;-83
2021/01/25 10:00:23;;;;;;;4.60;4.20;;;4.20;94.40;;;;;;5056774;28;20212;-83
2021/01/25 10:02:49;;;;;;;5.05;4.53;;;4.10;94.70;;;;;;5056107;28;20273;-83
2021/01/25 10:05:16;;;;;;;5.38;4.88;;;4.00;94.50;;;;;;5062527;28;20220;-83
2021/01/25 10:07:43;;;;;;;43.33;29.75;;;4.00;94.80;;;;;;5055024;28;20196;-83
2021/01/25 10:10:12;;;;;;;11.77;8.43;;;4.00;94.90;;;;;;5058970;28;20219;-84
2021/01/25 10:12:39;;;;;;;27.75;20.80;;;3.90;94.80;;;;;;5058928;28;20258;-84
2021/01/25 10:15:07;;;;;;;8.18;7.38;;;3.60;95.30;;;;;;5052867;28;20253;-84
2021/01/25 10:17:34;;;;;;;6.93;6.20;;;3.80;95.30;;;;;;5051476;28;20203;-83
2021/01/25 10:20:00;;;;;;;9.10;7.75;;;3.90;95.20;;;;;;5051957;28;20253;-83
2021/01/25 10:22:30;;;;;;;6.47;5.13;;;3.70;95.50;;;;;;5051314;28;20591;-84
2021/01/25 10:24:56;;;;;;;5.47;4.97;;;3.70;95.60;;;;;;5053888;28;20227;-83
2021/01/25 10:27:24;;;;;;;6.45;4.45;;;3.80;95.50;;;;;;5059109;28;20200;-84
2021/01/25 10:29:51;;;;;;;23.83;19.40;;;3.80;95.00;;;;;;5058324;28;20191;-84
2021/01/25 10:32:41;;;;;;;18.50;16.38;;;3.70;95.50;;;;;;5057224;28;20571;-83
2021/01/25 10:39:19;;;;;;;19.58;17.17;;;3.90;95.80;;;;;;5000519;28;20229;-83
2021/01/25 10:46:00;;;;;;;6.60;5.18;;;3.80;95.80;;;;;;4995991;28;20260;-83
2021/01/25 10:51:50;;;;;;;8.77;5.80;;;3.80;96.10;;;;;;5058217;28;20397;-83
2021/01/25 10:54:33;;;;;;;;;;;;;;;;;;;;;
2021/01/25 10:57:10;;;;;;;5.85;5.30;;;4.00;95.40;;;;;;5068188;28;20211;-84
2021/01/25 10:59:37;;;;;;;6.35;5.03;;;4.20;95.30;;;;;;5070350;28;20286;-83
2021/01/25 11:02:05;;;;;;;4.97;4.50;;;3.90;94.90;;;;;;5067767;28;20230;-84
2021/01/25 11:04:33;;;;;;;4.78;4.32;;;3.70;95.70;;;;;;5056810;28;20219;-84
2021/01/25 11:07:00;;;;;;;6.75;5.45;;;3.90;95.70;;;;;;5069360;28;20211;-83
2021/01/25 11:09:26;;;;;;;4.35;3.50;;;3.80;95.20;;;;;;5061113;28;20195;-83
2021/01/25 11:11:53;;;;;;;3.72;3.33;;;3.30;95.60;;;;;;5062161;28;20262;-84
2021/01/25 11:14:19;;;;;;;5.15;3.80;;;3.20;96.40;;;;;;5054728;28;20274;-84
2021/01/25 11:16:46;;;;;;;4.40;4.00;;;3.30;96.80;;;;;;5070559;28;20202;-84
2021/01/25 11:19:13;;;;;;;7.47;5.85;;;3.50;96.40;;;;;;5055533;28;20302;-85
2021/01/25 11:21:40;;;;;;;6.55;5.95;;;3.50;96.60;;;;;;5054148;28;20203;-84
2021/01/25 11:24:07;;;;;;;7.68;6.97;;;3.50;96.50;;;;;;5052136;28;20219;-84
2021/01/25 11:26:38;;;;;;;5.70;4.40;;;3.40;96.70;;;;;;5051053;28;20208;-83
2021/01/25 11:29:04;;;;;;;5.43;4.50;;;3.70;97.00;;;;;;5061950;28;20219;-84
2021/01/25 11:31:31;;;;;;;4.38;4.00;;;4.00;96.80;;;;;;5068909;28;20671;-84
2021/01/25 11:33:58;;;;;;;4.85;4.45;;;4.30;96.70;;;;;;5066466;28;20208;-83
2021/01/25 11:36:27;;;;;;;5.57;4.50;;;4.00;95.90;;;;;;5064102;28;20664;-84
2021/01/25 11:38:54;;;;;;;3.55;3.25;;;4.10;96.50;;;;;;5066156;28;20203;-84
2021/01/25 11:41:21;;;;;;;4.25;3.90;;;4.20;96.40;;;;;;5050546;28;20215;-84
2021/01/25 11:43:48;;;;;;;4.88;3.92;;;4.00;96.00;;;;;;5056591;28;20215;-83
2021/01/25 11:46:15;;;;;;;4.55;3.97;;;3.70;96.70;;;;;;5064106;28;20208;-83
2021/01/25 11:48:41;;;;;;;6.32;4.85;;;3.40;96.80;;;;;;5063826;28;20212;-83
2021/01/25 11:51:08;;;;;;;7.57;6.55;;;3.60;97.20;;;;;;5070104;28;20207;-83
2021/01/25 11:53:35;;;;;;;4.70;4.18;;;3.80;97.10;;;;;;5060227;28;20211;-83
2021/01/25 11:56:02;;;;;;;5.18;3.63;;;3.80;96.50;;;;;;5061625;28;20195;-83
2021/01/25 11:58:29;;;;;;;5.95;4.53;;;3.90;96.40;;;;;;5055792;28;20200;-83
2021/01/25 12:00:56;;;;;;;5.95;5.45;;;3.90;96.40;;;;;;5061604;28;20670;-84
2021/01/25 12:03:22;;;;;;;4.85;4.45;;;3.70;96.30;;;;;;5069262;28;20225;-83
2021/01/25 12:05:49;;;;;;;3.83;3.45;;;3.50;96.90;;;;;;5061604;28;20307;-83
2021/01/25 12:08:15;;;;;;;5.40;4.35;;;3.50;97.70;;;;;;5059027;28;20200;-83
2021/01/25 12:10:44;;;;;;;5.50;3.58;;;3.60;97.50;;;;;;5063436;28;20211;-83
2021/01/25 12:13:12;;;;;;;6.07;3.53;;;3.70;97.80;;;;;;5062218;28;20735;-84
2021/01/25 12:15:41;;;;;;;3.67;3.35;;;3.70;97.80;;;;;;5063695;28;20195;-83
2021/01/25 12:18:08;;;;;;;5.88;3.70;;;3.70;97.80;;;;;;5062198;28;20589;-83
2021/01/25 12:20:34;;;;;;;3.30;3.00;;;3.70;97.70;;;;;;5058300;28;20203;-84
2021/01/25 12:23:01;;;;;;;6.18;3.85;;;3.70;98.00;;;;;;5062509;28;20625;-84
2021/01/25 12:25:28;;;;;;;3.70;3.28;;;3.80;97.90;;;;;;5059551;28;20305;-84
2021/01/25 12:27:54;;;;;;;4.90;2.80;;;3.90;97.40;;;;;;5061470;28;20668;-83
2021/01/25 12:30:23;;;;;;;3.97;3.50;;;3.80;97.80;;;;;;5061585;28;20644;-83
2021/01/25 12:32:51;;;;;;;3.42;3.13;;;4.10;97.50;;;;;;5063609;28;20302;-83
2021/01/25 12:35:18;;;;;;;3.22;2.95;;;4.30;97.10;;;;;;5057988;28;20215;-83
2021/01/25 12:37:45;;;;;;;4.90;4.40;;;3.90;95.90;;;;;;5061912;28;20204;-83
2021/01/25 12:40:14;;;;;;;9.18;5.38;;;3.50;96.80;;;;;;5060363;28;20245;-84
2021/01/25 12:42:41;;;;;;;7.20;5.57;;;3.60;97.50;;;;;;5061996;28;20204;-83
2021/01/25 12:45:09;;;;;;;6.90;6.10;;;3.30;97.90;;;;;;5062560;28;20215;-83
2021/01/25 12:47:37;;;;;;;4.85;4.43;;;3.50;98.60;;;;;;5062319;28;20195;-84
2021/01/25 12:50:06;;;;;;;4.65;4.25;;;3.50;98.40;;;;;;5060662;28;20199;-83
2021/01/25 12:52:33;;;;;;;4.80;4.40;;;3.50;98.60;;;;;;5059508;28;20220;-83
2021/01/25 12:55:03;;;;;;;5.03;4.53;;;3.60;98.70;;;;;;5061388;28;20202;-83
2021/01/25 12:57:30;;;;;;;3.65;3.35;;;3.80;98.70;;;;;;5062676;28;20278;-83
2021/01/25 12:59:56;;;;;;;4.90;4.05;;;3.80;97.80;;;;;;5060186;28;20204;-83
2021/01/25 13:02:23;;;;;;;3.80;3.55;;;3.90;98.10;;;;;;5061243;28;20199;-84
2021/01/25 13:04:50;;;;;;;4.60;4.20;;;4.00;98.10;;;;;;5062066;28;20273;-84
2021/01/25 13:07:17;;;;;;;2.90;2.70;;;3.90;97.70;;;;;;5060579;28;20287;-83
2021/01/25 13:09:43;;;;;;;4.18;3.47;;;3.60;97.70;;;;;;5060413;28;20201;-84
2021/01/25 13:12:11;;;;;;;4.10;3.80;;;3.50;98.20;;;;;;5062386;28;20207;-84
2021/01/25 13:14:37;;;;;;;7.10;3.00;;;3.60;98.90;;;;;;5060880;28;20200;-84